Albuquerque, NM (87114)

8:36 AM MDT on August 21, 2014 (GMT -0600)
Vista Casitas | Change Station
CLOSE
Current Station
Personal Weather Station
Location: Albuquerque, NM
Elevation: 5466 ft
Nearby Weather Stations

Elev 5466 ft 35.19 °N, 106.74 °W | Updated 1 minute ago

Clear
Clear
72.8 °F
Feels Like 77 °F
N
1.0
Wind Variable Wind from NNE
Gusts 1.0 mph

Today
High -- | Low -- °F
--% Chance of Precip.
Yesterday
High -- | Low -- °F
Precip. -- in
6:31 AM 7:48 PM
Waning Crescent, 14% visible
Pressure 29.92 in
Visibility 10.0 miles
Clouds Few 1500 ft
Few 13000 ft
Heat Index 77 °F
Dew Point 45 °F
Humidity 37%
Rainfall 0.00 in
Snow Depth Not available.
UV 1 out of 12
Pollen 7.60 out of 12
Air Quality Not available.
Flu Activity Not available.
METAR KABQ 211352Z 00000KT 10SM FEW015 FEW130 21/08 A3017 RMK AO2 SLP130 FU FEW015 T02110078

More Conditions Fewer Conditions

Pressure 29.92 in
Visibility 10.0 miles
Clouds Few 1500 ft
Few 13000 ft
Heat Index 77 °F
Dew Point 45 °F
Humidity 37%
Rainfall 0.00 in
Snow Depth Not available.
UV 1 out of 12
Pollen 7.60 out of 12
Air Quality Not available.
Flu Activity Not available.
METAR KABQ 211352Z 00000KT 10SM FEW015 FEW130 21/08 A3017 RMK AO2 SLP130 FU FEW015 T02110078

More Conditions Fewer Conditions

10-Day Weather Forecast

Almanac

Astronomy

Aug. 21, 2014 Rise Set
Actual Time 6:31 AM MDT 7:48 PM MDT
Civil Twilight 6:04 AM MDT 8:14 PM MDT
Nautical Twilight 5:33 AM MDT 8:46 PM MDT
Astronomical Twilight 5:00 AM MDT 9:19 PM MDT
Moon 3:07 AM MDT 5:16 PM MDT
Length of Visible Light 14h 09m
Length of Day
13h 16m
Tomorrow will be 2m 1s shorter.
Waning Crescent, 14% of the Moon is Illuminated
Today
Waning Crescent
Aug 25
New
Sep 2
First Quarter
Sep 8
Full
Sep 15
Last Quarter

Today's Extremes

State Highs State Lows

Community

WunderPhotos

Upload Photos

1,745,932 photos uploaded!

WunderBlogs® & News

By Dr. Jeff Masters
Director of Meteorology, Weather Underground
By Kari Strenfel
Meteorologist, Weather Underground
By Christopher C. Burt
Weather Historian, Weather Underground
August 21, 2014
August 21, 2014
August 21, 2014

Nearby

Snow Depth

Station Depth Elevation
Quemazon 1 in 9500 ft
Senorita Divide #2 0 in 8600 ft
Santa Fe 0 in 11445 ft
Wesner Springs 2 in 11120 ft
Bateman 0 in 9300 ft

Earthquake Activity

City Distance Mag. Time & Date
No recent earthquake activity has been reported nearby.
Minimum magnitude displayed is 2.5.

Coastal Water Temperatures

Place Temperature
No Stations Reporting

Nearby Weather Stations